Time;durP1;ratioP1;P1;durP2;ratioP2;P2;SDS_P1;SDS_P2;PMS_P1;PMS_P2;Temp;Humidity;BMP_temperature;BMP_pressure;BME280_temperature;BME280_humidity;BME280_pressure;Samples;Min_cycle;Max_cycle;Signal;HPM_P1;HPM_P2
2021/05/23 00:00:00;;;;;;;2.30;1.47;;;13.40;99.90;;;;;;5092617;28;20481;-74
2021/05/23 00:02:26;;;;;;;2.40;1.10;;;13.30;99.90;;;;;;5093053;28;20662;-74
2021/05/23 00:04:53;;;;;;;1.23;1.13;;;13.20;99.90;;;;;;5092771;28;21102;-74
2021/05/23 00:07:25;;;;;;;1.17;1.07;;;13.10;99.90;;;;;;5092954;28;20522;-74
2021/05/23 00:09:53;;;;;;;1.70;1.40;;;13.10;99.90;;;;;;5092655;28;20527;-75
2021/05/23 00:12:20;;;;;;;1.90;1.73;;;13.00;99.90;;;;;;5092770;28;20794;-74
2021/05/23 00:14:46;;;;;;;1.10;1.00;;;12.90;99.90;;;;;;5092733;28;20442;-74
2021/05/23 00:17:12;;;;;;;1.40;1.30;;;12.90;99.90;;;;;;5092997;28;20829;-74
2021/05/23 00:19:38;;;;;;;1.60;1.47;;;12.90;99.90;;;;;;5092627;28;20447;-74
2021/05/23 00:22:05;;;;;;;2.20;1.10;;;12.80;99.90;;;;;;5092492;28;20565;-74
2021/05/23 00:24:32;;;;;;;1.47;1.37;;;12.80;99.90;;;;;;5092421;28;20496;-74
2021/05/23 00:26:59;;;;;;;1.60;1.30;;;12.70;99.90;;;;;;5092649;28;20443;-73
2021/05/23 00:29:25;;;;;;;1.13;1.00;;;12.70;99.90;;;;;;5092859;28;20455;-74
2021/05/23 00:31:53;;;;;;;1.50;1.20;;;12.70;99.90;;;;;;5092444;28;20453;-74
2021/05/23 00:34:19;;;;;;;1.30;1.10;;;12.70;99.90;;;;;;5092899;28;20449;-74
2021/05/23 00:36:45;;;;;;;1.60;1.50;;;12.70;99.90;;;;;;5094821;28;20464;-74
2021/05/23 00:39:11;;;;;;;1.90;1.70;;;12.60;99.90;;;;;;5096426;28;20579;-74
2021/05/23 00:41:37;;;;;;;1.63;1.30;;;12.50;99.90;;;;;;5096314;28;20510;-76
2021/05/23 00:44:05;;;;;;;4.27;1.20;;;12.50;99.90;;;;;;5096375;28;20473;-74
2021/05/23 00:46:31;;;;;;;3.10;1.23;;;12.50;99.90;;;;;;5096303;28;20521;-75
2021/05/23 00:48:57;;;;;;;3.90;1.70;;;12.40;99.90;;;;;;5096197;28;20442;-75
2021/05/23 00:51:23;;;;;;;1.30;1.20;;;12.40;99.90;;;;;;5096122;28;20474;-75
2021/05/23 00:53:49;;;;;;;1.27;1.17;;;12.40;99.90;;;;;;5095817;28;20477;-75
2021/05/23 00:56:18;;;;;;;1.90;1.50;;;12.40;99.90;;;;;;5096177;28;20470;-75
2021/05/23 00:58:44;;;;;;;1.50;1.40;;;12.30;99.90;;;;;;5095858;28;20469;-74
2021/05/23 01:01:13;;;;;;;2.80;1.43;;;12.40;99.90;;;;;;5095972;28;20864;-74
2021/05/23 01:03:56;;;;;;;1.63;1.37;;;12.30;99.90;;;;;;5095973;28;20486;-75
2021/05/23 01:06:22;;;;;;;1.47;1.33;;;12.30;99.90;;;;;;5095645;28;20801;-75
2021/05/23 01:08:49;;;;;;;1.80;1.53;;;12.40;99.90;;;;;;5095505;28;21025;-74
2021/05/23 01:11:55;;;;;;;2.80;1.40;;;12.30;99.90;;;;;;5095769;28;20465;-74
2021/05/23 01:14:50;;;;;;;1.77;1.33;;;12.40;99.90;;;;;;5095737;28;20450;-75
2021/05/23 01:17:22;;;;;;;1.60;1.50;;;12.50;99.90;;;;;;5081355;28;20443;-75
2021/05/23 01:20:06;;;;;;;1.60;1.50;;;12.50;99.90;;;;;;5095533;28;20861;-74
2021/05/23 01:22:37;;;;;;;1.50;1.40;;;12.60;99.90;;;;;;5095485;28;20562;-74
2021/05/23 01:25:09;;;;;;;3.40;1.67;;;12.60;99.90;;;;;;5091461;28;20507;-75
2021/05/23 01:27:37;;;;;;;2.60;1.90;;;12.50;99.90;;;;;;5095522;28;20515;-75
2021/05/23 01:30:05;;;;;;;5.23;2.40;;;12.50;99.90;;;;;;5095442;28;20473;-74
2021/05/23 01:32:32;;;;;;;2.10;2.00;;;12.40;99.90;;;;;;5095310;28;20536;-75
2021/05/23 01:35:00;;;;;;;1.80;1.70;;;12.30;99.90;;;;;;5095212;28;20541;-74
2021/05/23 01:37:26;;;;;;;1.70;1.60;;;12.20;99.90;;;;;;5095062;28;20500;-74
2021/05/23 01:39:52;;;;;;;1.90;1.67;;;12.20;99.90;;;;;;5095195;28;20466;-74
2021/05/23 01:42:20;;;;;;;2.50;1.70;;;12.10;99.90;;;;;;5095211;28;20573;-74
2021/05/23 01:44:47;;;;;;;2.30;1.77;;;12.00;99.90;;;;;;5095023;28;20537;-75
2021/05/23 01:47:13;;;;;;;2.60;1.70;;;12.00;99.90;;;;;;5094961;28;20485;-84
2021/05/23 01:49:39;;;;;;;2.13;1.60;;;12.00;99.90;;;;;;5094755;28;20481;-75
2021/05/23 01:52:05;;;;;;;2.23;2.03;;;11.90;99.90;;;;;;5094728;28;20985;-75
2021/05/23 01:54:31;;;;;;;1.93;1.83;;;11.90;99.90;;;;;;5095165;28;20929;-75
2021/05/23 01:56:57;;;;;;;2.37;2.17;;;11.80;99.90;;;;;;5094794;28;20474;-75
2021/05/23 01:59:24;;;;;;;4.40;2.00;;;11.80;99.90;;;;;;5094695;28;20884;-75
2021/05/23 02:01:50;;;;;;;2.07;1.80;;;11.80;99.90;;;;;;5092610;28;20514;-75
2021/05/23 02:04:16;;;;;;;1.97;1.87;;;11.70;99.90;;;;;;5094753;28;20478;-75
2021/05/23 02:06:43;;;;;;;3.70;2.27;;;11.70;99.90;;;;;;5094542;28;20466;-75
2021/05/23 02:09:09;;;;;;;2.20;2.10;;;11.70;99.90;;;;;;5094523;28;20859;-75
2021/05/23 02:11:35;;;;;;;2.20;2.07;;;11.70;99.90;;;;;;5093327;28;20508;-75
2021/05/23 02:14:01;;;;;;;3.33;1.77;;;11.70;99.90;;;;;;5094736;28;20861;-75
2021/05/23 02:16:28;;;;;;;23.63;4.00;;;11.60;99.90;;;;;;5094450;28;20485;-75
2021/05/23 02:18:54;;;;;;;2.07;1.97;;;11.60;99.90;;;;;;5094545;28;20530;-75
2021/05/23 02:21:20;;;;;;;1.70;1.60;;;11.60;99.90;;;;;;5094174;28;20480;-75
2021/05/23 02:23:50;;;;;;;1.70;1.60;;;11.50;99.90;;;;;;5094186;28;20450;-76
2021/05/23 02:26:16;;;;;;;1.80;1.70;;;11.50;99.90;;;;;;5094310;28;20449;-75
2021/05/23 02:28:42;;;;;;;1.90;1.80;;;11.50;99.90;;;;;;5094225;28;20486;-75
2021/05/23 02:31:08;;;;;;;2.27;2.17;;;11.50;99.90;;;;;;5094280;28;20485;-75
2021/05/23 02:33:35;;;;;;;4.17;2.07;;;11.50;99.90;;;;;;5092159;28;20443;-75
2021/05/23 02:36:01;;;;;;;4.03;2.57;;;11.50;99.90;;;;;;5094069;28;20462;-76
2021/05/23 02:38:28;;;;;;;2.23;2.10;;;11.40;99.90;;;;;;5092342;28;20492;-76
2021/05/23 02:40:55;;;;;;;2.00;1.90;;;11.40;99.90;;;;;;5093663;28;20474;-76
2021/05/23 02:43:21;;;;;;;2.53;1.90;;;11.40;99.90;;;;;;5094042;28;20442;-76
2021/05/23 02:45:47;;;;;;;2.03;1.93;;;11.40;99.90;;;;;;5093891;28;20449;-75
2021/05/23 02:48:14;;;;;;;2.07;1.87;;;11.40;99.90;;;;;;5093830;28;20470;-75
2021/05/23 02:50:43;;;;;;;2.20;2.00;;;11.30;99.90;;;;;;5093681;28;20446;-75
2021/05/23 02:53:10;;;;;;;2.17;1.80;;;11.30;99.90;;;;;;5093685;28;20457;-75
2021/05/23 02:55:38;;;;;;;2.00;1.90;;;11.30;99.90;;;;;;5089566;28;20460;-75
2021/05/23 02:58:05;;;;;;;1.90;1.80;;;11.20;99.90;;;;;;5085108;28;20413;-74
2021/05/23 03:00:31;;;;;;;2.33;1.93;;;11.20;99.90;;;;;;5092824;28;20447;-74
2021/05/23 03:02:58;;;;;;;2.23;2.03;;;11.20;99.90;;;;;;5093421;28;20544;-75
2021/05/23 03:05:24;;;;;;;2.70;1.87;;;11.20;99.90;;;;;;5093869;28;20490;-76
2021/05/23 03:07:53;;;;;;;2.50;2.30;;;11.20;99.90;;;;;;5093490;28;20485;-74
2021/05/23 03:10:22;;;;;;;2.00;1.70;;;11.10;99.90;;;;;;5093470;28;20446;-74
2021/05/23 03:12:48;;;;;;;2.30;1.67;;;11.10;99.90;;;;;;5093269;28;20907;-74
2021/05/23 03:15:16;;;;;;;2.30;1.73;;;11.10;99.90;;;;;;5093411;28;20474;-74
2021/05/23 03:17:43;;;;;;;1.80;1.70;;;11.10;99.90;;;;;;5093308;28;20443;-74
2021/05/23 03:20:10;;;;;;;2.73;1.70;;;11.10;99.90;;;;;;5093375;28;20538;-74
2021/05/23 03:22:37;;;;;;;3.60;1.70;;;11.10;99.90;;;;;;5093313;28;20490;-74
2021/05/23 03:25:06;;;;;;;3.03;1.87;;;11.10;99.90;;;;;;5082158;28;20443;-74
2021/05/23 03:27:32;;;;;;;2.53;2.10;;;11.10;99.90;;;;;;5093166;28;20447;-74
2021/05/23 03:29:58;;;;;;;3.00;1.53;;;11.20;99.90;;;;;;5091022;28;20543;-75
2021/05/23 03:32:24;;;;;;;2.03;1.80;;;11.20;99.90;;;;;;5093296;28;20485;-75
2021/05/23 03:34:50;;;;;;;3.00;1.77;;;11.20;99.90;;;;;;5093054;28;20533;-75
2021/05/23 03:37:16;;;;;;;1.70;1.60;;;11.30;99.90;;;;;;5092988;28;20449;-74
2021/05/23 03:39:42;;;;;;;2.40;1.93;;;11.30;99.90;;;;;;5092998;28;20470;-74
2021/05/23 03:42:09;;;;;;;4.90;1.70;;;11.40;99.90;;;;;;5092608;28;20547;-75
2021/05/23 03:44:35;;;;;;;4.70;1.67;;;11.40;99.90;;;;;;5092899;28;21029;-75
2021/05/23 03:47:01;;;;;;;2.70;1.90;;;11.50;99.90;;;;;;5092956;28;20895;-74
2021/05/23 03:49:28;;;;;;;2.00;1.73;;;11.50;99.90;;;;;;5092845;28;20456;-74
2021/05/23 03:51:54;;;;;;;2.50;2.20;;;11.50;99.90;;;;;;5092797;28;20470;-74
2021/05/23 03:54:20;;;;;;;2.20;2.10;;;11.50;99.90;;;;;;5091010;28;20452;-74
2021/05/23 03:56:46;;;;;;;2.37;2.03;;;11.50;99.90;;;;;;5084266;28;20456;-74
2021/05/23 03:59:13;;;;;;;2.93;1.80;;;11.50;99.90;;;;;;5092517;28;20468;-74
2021/05/23 04:01:39;;;;;;;5.17;2.20;;;11.60;99.90;;;;;;5092821;28;20521;-75
2021/05/23 04:04:07;;;;;;;2.23;2.03;;;11.60;99.90;;;;;;5092870;28;20450;-75
2021/05/23 04:06:33;;;;;;;2.63;1.80;;;11.60;99.90;;;;;;5092824;28;20424;-75
2021/05/23 04:08:59;;;;;;;4.37;1.87;;;11.60;99.90;;;;;;5092500;28;20496;-75
2021/05/23 04:11:30;;;;;;;4.50;1.80;;;11.60;99.90;;;;;;5092192;28;20878;-75
2021/05/23 04:13:56;;;;;;;2.03;1.93;;;11.60;99.90;;;;;;5092830;28;20422;-75
2021/05/23 04:16:23;;;;;;;2.13;1.90;;;11.60;99.90;;;;;;5092576;28;20418;-75
2021/05/23 04:18:49;;;;;;;2.73;1.80;;;11.70;99.90;;;;;;5092752;28;20832;-75
2021/05/23 04:21:15;;;;;;;1.70;1.60;;;11.70;99.90;;;;;;5092449;28;20502;-75
2021/05/23 04:23:41;;;;;;;2.00;1.90;;;11.70;99.90;;;;;;5092542;28;20840;-76
2021/05/23 04:26:07;;;;;;;1.70;1.60;;;12.00;99.90;;;;;;5092218;28;20470;-75
2021/05/23 04:28:33;;;;;;;1.93;1.70;;;12.20;99.90;;;;;;5092661;28;20870;-75
2021/05/23 04:31:00;;;;;;;2.33;1.67;;;12.50;99.90;;;;;;5092393;28;20447;-75
2021/05/23 04:33:26;;;;;;;4.43;2.00;;;12.70;99.90;;;;;;5092419;28;20992;-75
2021/05/23 04:35:53;;;;;;;3.00;1.67;;;12.90;99.90;;;;;;5092247;28;21023;-76
2021/05/23 04:38:19;;;;;;;1.97;1.87;;;13.00;99.90;;;;;;5092226;28;20604;-76
2021/05/23 04:40:45;;;;;;;1.80;1.70;;;13.20;99.90;;;;;;5092126;28;20477;-75
2021/05/23 04:43:13;;;;;;;1.60;1.50;;;13.30;99.90;;;;;;5092482;28;20975;-76
2021/05/23 04:45:39;;;;;;;1.50;1.40;;;13.40;99.90;;;;;;5092310;28;20421;-75
2021/05/23 04:48:06;;;;;;;1.80;1.60;;;13.40;99.90;;;;;;5092373;28;20443;-75
2021/05/23 04:50:34;;;;;;;1.97;1.87;;;13.50;99.90;;;;;;5092265;28;20525;-75
2021/05/23 04:53:00;;;;;;;2.50;1.83;;;13.60;99.90;;;;;;5091964;28;20474;-75
2021/05/23 04:55:26;;;;;;;1.90;1.70;;;13.70;99.90;;;;;;5089118;28;20530;-75
2021/05/23 04:57:52;;;;;;;2.10;1.90;;;13.80;99.90;;;;;;5087232;28;20482;-75
2021/05/23 05:00:19;;;;;;;1.70;1.60;;;13.80;99.90;;;;;;5091799;28;21012;-75
2021/05/23 05:02:45;;;;;;;1.73;1.60;;;13.70;99.90;;;;;;5092059;28;20514;-74
2021/05/23 05:05:13;;;;;;;2.40;1.73;;;13.60;99.90;;;;;;5092088;28;20443;-75
2021/05/23 05:07:41;;;;;;;1.67;1.57;;;13.70;99.90;;;;;;5092083;28;20442;-75
2021/05/23 05:10:10;;;;;;;2.20;1.70;;;13.90;99.90;;;;;;5090829;28;20446;-75
2021/05/23 05:12:36;;;;;;;3.83;1.60;;;14.20;99.90;;;;;;5092108;28;20486;-74
2021/05/23 05:15:03;;;;;;;2.90;1.90;;;14.30;99.90;;;;;;5091979;28;20538;-74
2021/05/23 05:17:29;;;;;;;2.00;1.80;;;14.50;99.90;;;;;;5091867;28;20563;-75
2021/05/23 05:19:55;;;;;;;1.37;1.20;;;14.60;99.90;;;;;;5092071;28;20474;-76
2021/05/23 05:22:21;;;;;;;2.80;1.63;;;14.70;99.90;;;;;;5091634;28;20474;-75
2021/05/23 05:24:48;;;;;;;2.00;1.47;;;14.70;99.90;;;;;;5095613;28;20529;-75
2021/05/23 05:27:14;;;;;;;2.10;1.33;;;14.70;99.90;;;;;;5095498;28;20863;-75
2021/05/23 05:29:40;;;;;;;1.60;1.20;;;14.80;99.90;;;;;;5095650;28;20452;-76
2021/05/23 05:32:06;;;;;;;1.23;1.13;;;14.80;99.90;;;;;;5095413;28;20704;-76
2021/05/23 05:34:32;;;;;;;1.40;1.30;;;14.80;99.90;;;;;;5095353;28;20457;-76
2021/05/23 05:36:58;;;;;;;1.63;0.90;;;14.80;99.90;;;;;;5095174;28;20589;-75
2021/05/23 05:39:24;;;;;;;1.77;1.40;;;14.80;99.90;;;;;;5095306;28;20538;-75
2021/05/23 05:41:51;;;;;;;2.03;1.10;;;14.70;99.90;;;;;;5095162;28;20509;-75
2021/05/23 05:44:17;;;;;;;1.63;1.10;;;14.70;99.90;;;;;;5095207;28;20529;-74
2021/05/23 05:46:43;;;;;;;1.07;0.97;;;14.60;99.90;;;;;;5095027;28;20458;-74
2021/05/23 05:49:09;;;;;;;1.43;1.20;;;14.60;99.90;;;;;;5094794;28;20447;-75
2021/05/23 05:51:35;;;;;;;2.30;1.37;;;14.60;99.90;;;;;;5095174;28;20478;-75
2021/05/23 05:54:01;;;;;;;1.20;1.10;;;14.50;99.90;;;;;;5095146;28;20550;-75
2021/05/23 05:56:27;;;;;;;1.30;1.10;;;14.50;99.90;;;;;;5094945;28;20489;-75
2021/05/23 05:58:54;;;;;;;1.37;1.27;;;14.50;99.90;;;;;;5094696;28;20506;-75
2021/05/23 06:01:20;;;;;;;1.30;1.20;;;14.50;99.90;;;;;;5094572;28;21051;-75
2021/05/23 06:03:46;;;;;;;1.50;1.00;;;14.50;99.90;;;;;;5094714;28;20490;-76
2021/05/23 06:06:12;;;;;;;1.50;1.40;;;14.50;99.90;;;;;;5094667;28;20443;-75
2021/05/23 06:08:38;;;;;;;1.27;1.13;;;14.50;99.90;;;;;;5094938;28;20805;-76
2021/05/23 06:11:04;;;;;;;1.20;1.10;;;14.50;99.90;;;;;;5094745;28;20449;-76
2021/05/23 06:13:30;;;;;;;1.10;1.00;;;14.50;99.90;;;;;;5094520;28;21133;-76
2021/05/23 06:15:58;;;;;;;1.80;1.23;;;14.50;99.90;;;;;;5094589;28;20474;-76
2021/05/23 06:18:25;;;;;;;1.80;1.40;;;14.60;99.90;;;;;;5094340;28;20457;-76
2021/05/23 06:20:51;;;;;;;0.97;0.90;;;14.60;99.90;;;;;;5094461;28;20477;-76
2021/05/23 06:23:17;;;;;;;1.43;1.10;;;14.60;99.90;;;;;;5094299;28;20540;-76
2021/05/23 06:25:43;;;;;;;1.40;1.30;;;14.50;99.90;;;;;;5094459;28;20908;-76
2021/05/23 06:28:09;;;;;;;2.30;1.30;;;14.50;99.90;;;;;;5094209;28;20873;-76
2021/05/23 06:30:35;;;;;;;4.37;1.20;;;14.60;99.90;;;;;;5094293;28;20478;-76
2021/05/23 06:33:02;;;;;;;1.60;1.03;;;14.60;99.90;;;;;;5094168;28;20496;-76
2021/05/23 06:35:28;;;;;;;3.93;1.50;;;14.40;99.90;;;;;;5094144;28;20549;-76
2021/05/23 06:37:55;;;;;;;2.87;1.50;;;14.30;99.90;;;;;;5094205;28;20832;-75
2021/05/23 06:40:21;;;;;;;1.63;1.40;;;14.30;99.90;;;;;;5094078;28;20443;-75
2021/05/23 06:42:47;;;;;;;2.60;1.20;;;14.20;99.90;;;;;;5094012;28;20514;-75
2021/05/23 06:45:13;;;;;;;2.50;1.23;;;14.10;99.90;;;;;;5093868;28;20960;-75
2021/05/23 06:47:39;;;;;;;1.97;1.33;;;13.90;99.90;;;;;;5089915;28;20482;-74
2021/05/23 06:50:08;;;;;;;1.57;1.40;;;13.80;99.90;;;;;;5078288;28;20530;-75
2021/05/23 06:52:34;;;;;;;1.40;1.30;;;13.70;99.90;;;;;;5075699;28;20550;-74
2021/05/23 06:55:00;;;;;;;2.60;1.30;;;13.70;99.90;;;;;;5078799;28;20442;-74
2021/05/23 06:57:28;;;;;;;6.17;1.57;;;13.70;99.90;;;;;;5078473;28;21179;-74
2021/05/23 06:59:54;;;;;;;1.70;1.60;;;13.70;99.90;;;;;;5079014;28;20502;-75
2021/05/23 07:02:20;;;;;;;2.40;1.40;;;13.60;99.90;;;;;;5078442;28;20545;-75
2021/05/23 07:04:47;;;;;;;1.60;1.50;;;13.70;99.90;;;;;;5079120;28;20521;-75
2021/05/23 07:07:13;;;;;;;2.53;1.50;;;13.70;99.90;;;;;;5078631;28;20434;-75
2021/05/23 07:09:41;;;;;;;2.23;1.50;;;13.80;99.90;;;;;;5078730;28;20533;-75
2021/05/23 07:12:08;;;;;;;2.27;1.67;;;13.90;99.90;;;;;;5077350;28;20563;-75
2021/05/23 07:14:34;;;;;;;1.70;1.40;;;14.00;99.90;;;;;;5078677;28;20534;-75
2021/05/23 07:17:00;;;;;;;2.07;1.70;;;14.20;99.90;;;;;;5079231;28;20546;-76
2021/05/23 07:19:26;;;;;;;1.67;1.30;;;14.30;99.90;;;;;;5079360;28;21124;-76
2021/05/23 07:21:52;;;;;;;1.40;1.30;;;14.50;99.90;;;;;;5079477;28;20561;-76
2021/05/23 07:24:19;;;;;;;1.53;1.10;;;14.80;99.90;;;;;;5079835;28;21127;-75
2021/05/23 07:26:45;;;;;;;2.83;1.40;;;15.00;99.90;;;;;;5092635;28;20470;-75
2021/05/23 07:29:11;;;;;;;1.50;1.20;;;15.40;99.90;;;;;;5091645;28;20480;-75
2021/05/23 07:31:38;;;;;;;1.63;1.40;;;15.90;99.90;;;;;;5082917;28;20478;-75
2021/05/23 07:34:04;;;;;;;1.93;1.30;;;16.30;99.90;;;;;;5079070;28;20474;-75
2021/05/23 07:36:30;;;;;;;1.30;1.03;;;16.80;99.90;;;;;;5078879;28;20545;-75
2021/05/23 07:38:56;;;;;;;2.80;1.40;;;17.30;99.90;;;;;;5082520;28;20481;-75
2021/05/23 07:41:23;;;;;;;1.77;1.40;;;17.90;99.90;;;;;;5092196;28;20807;-75
2021/05/23 07:43:49;;;;;;;1.73;1.17;;;18.40;99.90;;;;;;5085788;28;20454;-76
2021/05/23 07:46:15;;;;;;;1.63;1.23;;;19.00;99.90;;;;;;5090112;28;20446;-75
2021/05/23 07:48:42;;;;;;;1.40;1.10;;;19.60;99.90;;;;;;5092601;28;20478;-76
2021/05/23 07:51:08;;;;;;;1.83;1.10;;;20.00;99.90;;;;;;5092707;28;20478;-76
2021/05/23 07:53:34;;;;;;;4.97;1.53;;;20.30;99.90;;;;;;5092047;28;20486;-77
2021/05/23 07:56:01;;;;;;;2.53;1.10;;;20.50;99.90;;;;;;5092318;28;20443;-75
2021/05/23 07:58:28;;;;;;;1.10;1.00;;;20.60;99.90;;;;;;5091139;28;20466;-75
2021/05/23 08:00:54;;;;;;;1.80;1.10;;;20.70;99.90;;;;;;5091476;28;20530;-75
2021/05/23 08:03:20;;;;;;;1.10;1.00;;;20.60;99.90;;;;;;5092203;28;20548;-75
2021/05/23 08:05:46;;;;;;;1.53;0.90;;;20.70;99.90;;;;;;5089947;28;20546;-75
2021/05/23 08:08:12;;;;;;;3.03;1.13;;;20.90;99.90;;;;;;5091984;28;20489;-75
2021/05/23 08:10:38;;;;;;;1.00;0.90;;;21.20;99.90;;;;;;5092026;28;20526;-75
2021/05/23 08:13:04;;;;;;;1.80;1.17;;;21.30;99.90;;;;;;5090862;28;20478;-75
2021/05/23 08:15:32;;;;;;;1.87;0.80;;;21.40;99.90;;;;;;5092455;28;20481;-75
2021/05/23 08:17:59;;;;;;;1.77;1.13;;;21.40;99.90;;;;;;5092081;28;20512;-75
2021/05/23 08:20:25;;;;;;;1.87;1.10;;;21.20;99.90;;;;;;5092529;28;20776;-75
2021/05/23 08:22:51;;;;;;;1.30;1.20;;;21.00;99.90;;;;;;5092255;28;20474;-76
2021/05/23 08:25:17;;;;;;;1.07;0.97;;;20.80;99.90;;;;;;5092371;28;20478;-75
2021/05/23 08:27:44;;;;;;;1.73;1.00;;;20.50;99.90;;;;;;5092013;28;20474;-74
2021/05/23 08:30:11;;;;;;;2.50;0.90;;;20.00;99.90;;;;;;5092246;28;20485;-75
2021/05/23 08:32:39;;;;;;;2.73;1.10;;;19.50;99.90;;;;;;5092431;28;20534;-75
2021/05/23 08:35:06;;;;;;;1.23;0.90;;;19.30;99.90;;;;;;5092150;28;20454;-74
2021/05/23 08:37:33;;;;;;;1.30;1.03;;;19.20;99.90;;;;;;5092105;28;20564;-75
2021/05/23 08:39:59;;;;;;;1.57;1.30;;;19.10;99.90;;;;;;5091977;28;20950;-75
2021/05/23 08:42:25;;;;;;;1.00;0.90;;;19.00;99.90;;;;;;5092019;28;20531;-75
2021/05/23 08:44:51;;;;;;;1.30;1.10;;;19.00;99.90;;;;;;5092058;28;20854;-75
2021/05/23 08:47:17;;;;;;;1.00;0.87;;;19.20;99.90;;;;;;5092244;28;20493;-75
2021/05/23 08:49:44;;;;;;;1.30;0.93;;;19.20;99.90;;;;;;5092054;28;20538;-76
2021/05/23 08:52:11;;;;;;;1.20;1.00;;;19.40;99.90;;;;;;5092017;28;20493;-74
2021/05/23 08:54:41;;;;;;;1.13;1.03;;;19.50;99.90;;;;;;5091851;28;20541;-75
2021/05/23 08:57:08;;;;;;;1.60;0.90;;;19.80;99.90;;;;;;5092168;28;20447;-75
2021/05/23 08:59:34;;;;;;;1.33;0.90;;;20.10;99.90;;;;;;5095199;28;20496;-74
2021/05/23 09:02:04;;;;;;;2.37;1.10;;;20.20;99.90;;;;;;5095770;28;20509;-74
2021/05/23 09:04:30;;;;;;;1.50;0.93;;;20.30;99.90;;;;;;5095616;28;20482;-75
2021/05/23 09:07:01;;;;;;;2.23;1.00;;;20.50;99.90;;;;;;5095668;28;20482;-74
2021/05/23 09:09:28;;;;;;;1.40;1.00;;;20.50;99.90;;;;;;5095493;28;20508;-74
2021/05/23 09:11:59;;;;;;;1.77;1.30;;;20.60;99.90;;;;;;5095804;28;20873;-75
2021/05/23 09:14:34;;;;;;;4.13;2.23;;;20.50;99.90;;;;;;5095667;28;20473;-74
2021/05/23 09:17:00;;;;;;;2.40;1.17;;;20.30;99.90;;;;;;5095512;28;20442;-75
2021/05/23 09:19:29;;;;;;;2.00;1.00;;;20.10;99.90;;;;;;5095342;28;20485;-75
2021/05/23 09:21:55;;;;;;;2.17;1.00;;;20.20;99.90;;;;;;5095184;28;20466;-75
2021/05/23 09:24:22;;;;;;;1.90;0.90;;;20.20;99.90;;;;;;5095557;28;20541;-75
2021/05/23 09:26:50;;;;;;;1.73;1.00;;;20.10;99.90;;;;;;5095462;28;20469;-75
2021/05/23 09:29:19;;;;;;;1.00;0.90;;;20.30;99.90;;;;;;5095368;28;20477;-75
2021/05/23 09:31:52;;;;;;;1.30;0.90;;;20.50;99.90;;;;;;5095350;28;20809;-74
2021/05/23 09:34:21;;;;;;;3.13;0.80;;;20.50;99.90;;;;;;5095043;28;20882;-75
2021/05/23 09:36:49;;;;;;;1.40;1.13;;;20.80;99.90;;;;;;5095401;28;20472;-75
2021/05/23 09:39:16;;;;;;;1.87;1.07;;;21.00;99.90;;;;;;5078838;28;20454;-75
2021/05/23 09:41:44;;;;;;;1.07;1.00;;;21.20;99.90;;;;;;5095068;28;20498;-74
2021/05/23 09:44:12;;;;;;;1.00;0.83;;;21.20;99.90;;;;;;5094635;28;20485;-74
2021/05/23 09:47:03;;;;;;;2.33;1.00;;;20.80;99.90;;;;;;5094324;28;20507;-76
2021/05/23 09:49:41;;;;;;;1.10;1.00;;;20.40;99.90;;;;;;5088217;28;20538;-76
2021/05/23 09:52:13;;;;;;;1.67;1.57;;;20.10;99.90;;;;;;5094955;28;20453;-76
2021/05/23 09:54:56;;;;;;;1.20;1.00;;;19.90;99.90;;;;;;5094778;28;20797;-75
2021/05/23 09:57:25;;;;;;;1.43;1.10;;;19.80;99.90;;;;;;5079497;28;20450;-75
2021/05/23 10:00:08;;;;;;;1.30;1.20;;;19.60;99.90;;;;;;5094593;28;20470;-77
2021/05/23 10:02:49;;;;;;;1.60;1.10;;;19.00;99.90;;;;;;5093264;28;20481;-77
2021/05/23 10:05:25;;;;;;;1.97;1.10;;;19.00;99.90;;;;;;5078148;28;20450;-77
2021/05/23 10:08:14;;;;;;;1.07;1.00;;;18.60;99.90;;;;;;5094721;28;20946;-76
2021/05/23 10:11:01;;;;;;;1.30;1.00;;;18.70;99.90;;;;;;5094354;28;20460;-75
2021/05/23 10:13:36;;;;;;;1.27;1.00;;;18.90;99.90;;;;;;5071388;28;20446;-77
2021/05/23 10:16:11;;;;;;;1.10;0.80;;;18.80;99.90;;;;;;5094302;28;20481;-75
2021/05/23 10:18:38;;;;;;;1.13;0.63;;;18.90;99.90;;;;;;5094270;28;20438;-75
2021/05/23 10:21:05;;;;;;;1.67;0.77;;;18.90;99.90;;;;;;5094087;28;21284;-75
2021/05/23 10:23:34;;;;;;;0.90;0.70;;;18.90;99.90;;;;;;5094355;28;20506;-74
2021/05/23 10:26:03;;;;;;;0.80;0.80;;;19.10;99.90;;;;;;5094116;28;20447;-74
2021/05/23 10:28:31;;;;;;;0.70;0.70;;;19.20;99.90;;;;;;5094246;28;20490;-74
2021/05/23 10:30:58;;;;;;;0.93;0.70;;;19.40;99.90;;;;;;5094220;28;20451;-75
2021/05/23 10:33:24;;;;;;;0.97;0.87;;;19.60;99.90;;;;;;5094351;28;20450;-74
2021/05/23 10:35:52;;;;;;;0.60;0.50;;;19.70;99.90;;;;;;5094220;28;20478;-74
2021/05/23 10:38:21;;;;;;;1.00;0.60;;;19.70;99.90;;;;;;5094152;28;20564;-74
2021/05/23 10:40:52;;;;;;;0.77;0.70;;;19.70;99.90;;;;;;5093747;28;20509;-75
2021/05/23 10:43:24;;;;;;;3.00;2.80;;;19.80;99.90;;;;;;5091236;28;21021;-75
2021/05/23 10:46:06;;;;;;;0.83;0.70;;;19.90;99.90;;;;;;5091814;28;20454;-74
2021/05/23 10:48:33;;;;;;;1.50;1.40;;;20.10;99.90;;;;;;5090860;28;20479;-76
2021/05/23 10:51:09;;;;;;;0.80;0.77;;;20.30;99.90;;;;;;5093477;28;20443;-76
2021/05/23 10:53:35;;;;;;;1.10;0.80;;;20.70;99.90;;;;;;5093694;28;20533;-73
2021/05/23 10:56:02;;;;;;;1.00;0.73;;;21.00;99.90;;;;;;5093328;28;20447;-73
2021/05/23 10:58:29;;;;;;;0.73;0.67;;;21.10;99.90;;;;;;5093410;28;20563;-73
2021/05/23 11:00:57;;;;;;;1.10;0.90;;;21.20;99.90;;;;;;5093529;28;20803;-73
2021/05/23 11:03:26;;;;;;;0.73;0.70;;;21.20;99.90;;;;;;5093416;28;20566;-73
2021/05/23 11:06:01;;;;;;;1.20;0.70;;;21.40;99.90;;;;;;5093263;28;20848;-73
2021/05/23 11:08:29;;;;;;;0.70;0.60;;;21.50;99.90;;;;;;5093131;28;20499;-73
2021/05/23 11:10:55;;;;;;;0.80;0.70;;;21.60;99.90;;;;;;5093086;28;21047;-73
2021/05/23 11:13:29;;;;;;;0.80;0.70;;;21.60;99.90;;;;;;5093062;28;20976;-73
2021/05/23 11:16:08;;;;;;;0.80;0.60;;;21.80;99.90;;;;;;5090983;28;20443;-73
2021/05/23 11:18:34;;;;;;;0.70;0.70;;;22.00;99.90;;;;;;5092601;28;20481;-72
2021/05/23 11:21:02;;;;;;;1.43;0.67;;;22.10;99.90;;;;;;5091678;28;20543;-73
2021/05/23 11:23:30;;;;;;;0.90;0.80;;;22.30;99.90;;;;;;5092767;28;20567;-73
2021/05/23 11:26:03;;;;;;;0.97;0.90;;;22.30;99.90;;;;;;5089918;28;20470;-73
2021/05/23 11:28:29;;;;;;;0.90;0.80;;;22.30;99.90;;;;;;5093274;28;20493;-73
2021/05/23 11:30:56;;;;;;;0.97;0.90;;;22.30;99.90;;;;;;5092854;28;20454;-73
2021/05/23 11:33:22;;;;;;;1.00;0.90;;;22.30;99.90;;;;;;5093413;28;20542;-73
2021/05/23 11:35:49;;;;;;;1.17;0.70;;;22.30;99.90;;;;;;5093234;28;20525;-73
2021/05/23 11:38:15;;;;;;;1.20;0.90;;;22.40;99.90;;;;;;5090751;28;20458;-73
2021/05/23 11:40:43;;;;;;;0.80;0.80;;;22.20;99.90;;;;;;5092891;28;20530;-73
2021/05/23 11:43:15;;;;;;;1.13;0.80;;;22.10;99.70;;;;;;5092835;28;20509;-73
2021/05/23 11:45:56;;;;;;;1.00;0.90;;;22.00;99.90;;;;;;5092835;28;20912;-73
2021/05/23 11:48:34;;;;;;;0.80;0.80;;;21.60;99.90;;;;;;5081572;28;20451;-73
2021/05/23 11:51:03;;;;;;;0.90;0.90;;;21.20;99.90;;;;;;5092269;28;20442;-73
2021/05/23 11:53:37;;;;;;;1.57;0.80;;;20.80;99.90;;;;;;5092221;28;20446;-73
2021/05/23 11:56:03;;;;;;;1.10;1.00;;;20.60;99.90;;;;;;5092005;28;20922;-73
2021/05/23 11:58:29;;;;;;;0.83;0.80;;;20.60;99.90;;;;;;5092213;28;20481;-74
2021/05/23 12:01:13;;;;;;;1.43;0.90;;;20.70;99.90;;;;;;5092173;28;20484;-75
2021/05/23 12:03:39;;;;;;;1.00;0.90;;;20.80;99.90;;;;;;5092306;28;20508;-77
2021/05/23 12:06:15;;;;;;;1.80;1.53;;;20.80;99.90;;;;;;5091989;28;20443;-77
2021/05/23 12:08:41;;;;;;;1.73;0.93;;;20.70;99.90;;;;;;5089621;28;20965;-74
2021/05/23 12:11:07;;;;;;;3.77;1.50;;;20.50;99.90;;;;;;5091871;28;20540;-74
2021/05/23 12:13:39;;;;;;;0.90;0.80;;;20.40;99.90;;;;;;5092177;28;20484;-77
2021/05/23 12:16:07;;;;;;;0.90;0.90;;;20.50;99.90;;;;;;5092074;28;20439;-77
2021/05/23 12:18:46;;;;;;;1.30;0.70;;;20.60;99.90;;;;;;5089250;28;20545;-77
2021/05/23 12:21:15;;;;;;;1.03;0.80;;;20.80;99.90;;;;;;5091223;28;20457;-77
2021/05/23 12:23:43;;;;;;;0.80;0.70;;;20.90;99.90;;;;;;5089666;28;20531;-77
2021/05/23 12:26:10;;;;;;;1.57;1.13;;;20.90;99.90;;;;;;5091988;28;20447;-77
2021/05/23 12:28:47;;;;;;;1.20;1.10;;;20.80;99.90;;;;;;5092245;28;20447;-76
2021/05/23 12:31:16;;;;;;;1.00;0.90;;;20.60;99.90;;;;;;5092266;28;20541;-74
2021/05/23 12:33:50;;;;;;;0.80;0.80;;;20.50;99.90;;;;;;5096576;28;20537;-74
2021/05/23 12:36:16;;;;;;;1.10;0.90;;;20.70;99.90;;;;;;5086952;28;20454;-74
2021/05/23 12:38:54;;;;;;;0.97;0.80;;;21.00;99.90;;;;;;5096540;28;20450;-74
2021/05/23 12:41:20;;;;;;;0.90;0.73;;;21.10;99.90;;;;;;5096319;28;20536;-74
2021/05/23 12:43:46;;;;;;;1.20;1.10;;;21.10;99.90;;;;;;5096348;28;20540;-74
2021/05/23 12:46:15;;;;;;;1.20;1.10;;;21.10;99.90;;;;;;5096102;28;20450;-73
2021/05/23 12:48:43;;;;;;;1.90;1.60;;;21.00;99.90;;;;;;5096386;28;20530;-73
2021/05/23 12:51:10;;;;;;;1.30;0.90;;;20.80;99.90;;;;;;5096000;28;20533;-73